Time;durP1;ratioP1;P1;durP2;ratioP2;P2;SDS_P1;SDS_P2;PMS_P1;PMS_P2;Temp;Humidity;BMP_temperature;BMP_pressure;BME280_temperature;BME280_humidity;BME280_pressure;Samples;Min_cycle;Max_cycle;Signal;HPM_P1;HPM_P2
2022/11/25 00:01:23;;;;;;;9.63;8.00;;;3.70;99.90;3.50;100485.00;;;;4987994;27;87783;-66
2022/11/25 00:03:51;;;;;;;12.40;7.87;;;3.90;99.90;3.50;100483.00;;;;4979444;28;92058;-65
2022/11/25 00:06:19;;;;;;;14.53;8.83;;;3.70;99.90;3.50;100490.00;;;;4989855;27;86928;-65
2022/11/25 00:08:48;;;;;;;12.77;8.93;;;3.70;99.90;3.50;100495.00;;;;4955368;28;89533;-65
2022/11/25 00:11:16;;;;;;;10.67;8.57;;;3.70;99.90;3.50;100490.00;;;;4985160;28;88600;-66
2022/11/25 00:13:43;;;;;;;12.57;9.37;;;3.80;99.90;3.50;100475.00;;;;4973069;28;92611;-66
2022/11/25 00:16:12;;;;;;;12.77;9.20;;;3.70;99.90;3.40;100479.00;;;;4969859;28;101047;-66
2022/11/25 00:18:38;;;;;;;16.47;9.80;;;3.60;99.90;3.40;100487.00;;;;4974064;28;88955;-66
2022/11/25 00:21:11;;;;;;;12.33;10.43;;;3.60;99.90;3.30;100481.00;;;;4975213;28;88502;-66
2022/11/25 00:23:37;;;;;;;14.73;10.10;;;3.50;99.90;3.20;100488.00;;;;4970124;28;87843;-65
2022/11/25 00:26:15;;;;;;;13.97;10.50;;;3.50;99.90;3.10;100487.00;;;;4968165;28;87846;-65
2022/11/25 00:28:43;;;;;;;20.63;10.17;;;3.40;99.90;3.10;100493.00;;;;4969725;28;118212;-66
2022/11/25 00:31:22;;;;;;;12.53;10.37;;;3.30;99.90;3.10;100487.00;;;;4968657;28;88714;-66
2022/11/25 00:33:49;;;;;;;13.10;8.83;;;3.20;99.90;3.10;100479.00;;;;4968992;28;103304;-66
2022/11/25 00:36:23;;;;;;;17.73;9.20;;;3.30;99.90;3.10;100493.00;;;;4985437;28;88143;-66
2022/11/25 00:38:58;;;;;;;8.30;7.23;;;3.40;99.90;3.10;100497.00;;;;4974412;28;89644;-66
2022/11/25 00:46:57;;;;;;;24.30;9.43;;;3.50;99.90;3.20;100490.00;;;;4987990;28;87800;-66
2022/11/25 00:49:23;;;;;;;11.47;6.63;;;3.30;99.90;3.20;100498.00;;;;4991767;28;117676;-66
2022/11/25 00:51:49;;;;;;;6.03;5.43;;;3.40;99.90;3.20;100494.00;;;;4992933;27;117454;-66
2022/11/25 00:54:15;;;;;;;13.90;8.83;;;3.40;99.90;3.10;100495.00;;;;4975984;27;107895;-66
2022/11/25 00:56:40;;;;;;;9.63;7.43;;;3.40;99.90;3.10;100501.00;;;;4987616;27;108837;-66
2022/11/25 00:59:07;;;;;;;10.73;7.17;;;3.30;99.90;3.10;100497.00;;;;4987114;27;110040;-65
2022/11/25 01:01:33;;;;;;;7.80;6.23;;;3.40;99.90;3.10;100507.00;;;;4989154;28;104897;-65
2022/11/25 01:03:59;;;;;;;9.37;6.47;;;3.40;99.90;3.10;100489.00;;;;4986406;28;88969;-65
2022/11/25 01:06:24;;;;;;;8.73;5.23;;;3.40;99.90;3.10;100502.00;;;;4989973;28;108447;-66
2022/11/25 01:08:50;;;;;;;10.10;6.57;;;3.30;99.90;3.10;100501.00;;;;4989564;27;118377;-66
2022/11/25 01:11:20;;;;;;;10.00;6.97;;;3.30;99.90;3.00;100499.00;;;;4994066;27;101346;-66
2022/11/25 01:13:46;;;;;;;8.43;6.90;;;3.20;99.90;3.00;100489.00;;;;4963637;28;87883;-65
2022/11/25 01:16:16;;;;;;;6.47;5.13;;;3.30;99.90;2.90;100490.00;;;;4989068;28;108046;-65
2022/11/25 01:18:42;;;;;;;9.73;6.53;;;3.20;99.90;2.80;100491.00;;;;4992452;27;88163;-65
2022/11/25 01:21:11;;;;;;;7.27;5.93;;;3.10;99.90;2.80;100494.00;;;;4993827;27;95237;-65
2022/11/25 01:23:38;;;;;;;11.67;6.43;;;3.10;99.90;2.70;100480.00;;;;4992298;28;89795;-65
2022/11/25 01:26:06;;;;;;;13.67;6.20;;;3.00;99.90;2.70;100487.00;;;;4995323;28;88195;-65
2022/11/25 01:28:32;;;;;;;7.83;5.93;;;2.90;99.90;2.60;100491.00;;;;4995497;27;109485;-65
2022/11/25 01:31:08;;;;;;;8.77;5.60;;;2.80;99.90;2.50;100485.00;;;;4996440;27;116840;-65
2022/11/25 01:33:34;;;;;;;5.03;4.50;;;2.90;99.90;2.50;100482.00;;;;4982204;28;87684;-66
2022/11/25 01:36:09;;;;;;;5.60;4.97;;;2.70;99.90;2.40;100481.00;;;;4986464;28;87729;-65
2022/11/25 01:38:35;;;;;;;5.67;4.73;;;2.80;99.90;2.40;100489.00;;;;4996475;27;88748;-65
2022/11/25 01:41:02;;;;;;;5.53;5.03;;;2.70;99.90;2.30;100492.00;;;;4995263;28;88895;-65
2022/11/25 01:43:29;;;;;;;5.03;4.13;;;2.60;99.90;2.20;100476.00;;;;4977385;27;87924;-66
2022/11/25 01:46:25;;;;;;;9.80;5.73;;;2.60;99.90;2.10;100484.00;;;;4988241;27;93996;-64
2022/11/25 01:49:05;;;;;;;8.50;5.73;;;2.50;99.90;2.00;100487.00;;;;4976598;28;100353;-65
2022/11/25 01:51:45;;;;;;;6.47;4.90;;;2.30;99.90;1.90;100479.00;;;;4994773;27;108772;-64
2022/11/25 01:54:15;;;;;;;5.33;4.83;;;2.30;99.90;1.90;100487.00;;;;4980243;28;99799;-64
2022/11/25 01:56:54;;;;;;;8.23;6.13;;;2.20;99.90;1.80;100487.00;;;;4993804;27;88104;-64
2022/11/25 01:59:20;;;;;;;10.27;6.03;;;2.10;99.90;1.70;100491.00;;;;4987788;27;108341;-65
2022/11/25 02:01:46;;;;;;;13.60;5.20;;;2.00;99.90;1.60;100499.00;;;;4988057;28;116266;-64
2022/11/25 02:04:14;;;;;;;7.57;4.97;;;2.00;99.90;1.60;100482.00;;;;4987028;27;109581;-64
2022/11/25 02:06:50;;;;;;;5.33;4.70;;;1.90;99.90;1.50;100492.00;;;;4991822;27;108660;-64
2022/11/25 02:09:18;;;;;;;5.53;4.73;;;2.00;99.90;1.40;100487.00;;;;4979517;28;87827;-63
2022/11/25 02:11:44;;;;;;;9.63;4.80;;;2.80;99.90;1.40;100487.00;;;;4977609;28;87358;-64
2022/11/25 02:14:12;;;;;;;10.80;5.50;;;1.70;99.90;1.30;100475.00;;;;4980273;28;110766;-64
2022/11/25 02:16:38;;;;;;;6.63;4.53;;;1.70;99.90;1.20;100479.00;;;;4990476;27;88151;-65
2022/11/25 02:19:09;;;;;;;10.77;5.53;;;1.60;99.90;1.20;100474.00;;;;4990466;27;118898;-64
2022/11/25 02:21:43;;;;;;;7.50;4.90;;;1.50;99.90;1.10;100479.00;;;;4979729;27;108914;-65
2022/11/25 02:24:44;;;;;;;9.03;4.77;;;1.50;99.90;1.00;100483.00;;;;4979309;28;98426;-65
2022/11/25 02:27:09;;;;;;;7.30;4.80;;;1.40;99.90;1.00;100484.00;;;;4933435;28;102635;-64
2022/11/25 02:29:36;;;;;;;10.63;4.20;;;1.40;99.90;1.00;100476.00;;;;4993718;27;108482;-65
2022/11/25 02:32:02;;;;;;;5.17;3.83;;;1.30;99.90;1.00;100473.00;;;;4995513;27;88089;-65
2022/11/25 02:34:27;;;;;;;4.80;3.30;;;1.30;99.90;1.00;100483.00;;;;4993787;27;97872;-65
2022/11/25 02:36:53;;;;;;;7.57;4.90;;;1.30;99.90;1.00;100479.00;;;;4994853;28;109102;-65
2022/11/25 02:39:20;;;;;;;7.03;3.73;;;1.30;99.90;1.00;100472.00;;;;4994664;27;91421;-65
2022/11/25 02:41:53;;;;;;;7.83;4.93;;;1.60;99.90;1.00;100475.00;;;;4990595;27;97153;-64
2022/11/25 02:44:19;;;;;;;8.00;5.83;;;1.30;99.90;1.10;100476.00;;;;4989466;27;102272;-65
2022/11/25 02:46:45;;;;;;;12.47;6.30;;;1.40;99.90;1.10;100474.00;;;;4987873;28;87908;-64
2022/11/25 02:49:11;;;;;;;8.83;5.20;;;1.40;99.90;1.20;100482.00;;;;4991944;27;88794;-64
2022/11/25 02:51:40;;;;;;;9.43;5.87;;;1.40;99.90;1.30;100480.00;;;;4994369;27;87899;-64
2022/11/25 02:54:06;;;;;;;8.17;4.77;;;1.60;99.90;1.30;100486.00;;;;4992409;27;87611;-64
2022/11/25 02:56:33;;;;;;;6.00;5.37;;;1.60;99.90;1.40;100488.00;;;;4991528;27;94936;-65
2022/11/25 02:59:00;;;;;;;7.37;5.30;;;1.60;99.90;1.50;100476.00;;;;4988123;28;110241;-64
2022/11/25 03:01:26;;;;;;;8.17;4.70;;;1.70;99.90;1.50;100477.00;;;;4990542;27;88654;-64
2022/11/25 03:03:52;;;;;;;7.00;4.47;;;1.70;99.90;1.60;100472.00;;;;4995020;27;88010;-63
2022/11/25 03:06:18;;;;;;;4.77;3.63;;;1.80;99.90;1.60;100483.00;;;;4994852;27;108775;-64
2022/11/25 03:08:44;;;;;;;5.47;4.93;;;1.90;99.90;1.70;100472.00;;;;4989618;27;117757;-64
2022/11/25 03:11:09;;;;;;;5.77;4.00;;;2.00;99.90;1.70;100475.00;;;;4990339;28;89029;-63
2022/11/25 03:13:35;;;;;;;7.17;4.80;;;2.00;99.90;1.80;100470.00;;;;4994666;27;88087;-64
2022/11/25 03:16:01;;;;;;;7.10;5.03;;;2.00;99.90;1.80;100469.00;;;;4991812;28;88069;-66
2022/11/25 03:18:26;;;;;;;7.30;3.90;;;2.00;99.90;1.80;100486.00;;;;4993282;27;118269;-65
2022/11/25 03:20:53;;;;;;;6.70;4.33;;;2.10;99.90;1.80;100494.00;;;;4995374;27;117280;-65
2022/11/25 03:23:20;;;;;;;5.13;3.20;;;2.10;99.90;1.80;100486.00;;;;4994274;27;87944;-65
2022/11/25 03:25:45;;;;;;;11.50;5.33;;;2.00;99.90;1.90;100489.00;;;;4992504;27;102000;-66
2022/11/25 03:28:11;;;;;;;5.00;3.03;;;2.10;99.90;1.90;100498.00;;;;4992920;28;104921;-66
2022/11/25 03:30:37;;;;;;;9.67;4.33;;;2.60;99.90;2.00;100489.00;;;;4990855;27;117910;-66
2022/11/25 03:33:03;;;;;;;7.50;5.20;;;2.20;99.90;2.00;100480.00;;;;4982253;27;110174;-65
2022/11/25 03:35:28;;;;;;;3.33;2.67;;;2.90;99.90;2.00;100492.00;;;;4984805;27;110042;-66
2022/11/25 03:37:54;;;;;;;3.63;2.87;;;2.40;99.90;2.10;100503.00;;;;4995280;27;118429;-65
2022/11/25 03:40:20;;;;;;;3.27;2.97;;;2.40;99.90;2.10;100502.00;;;;4999894;27;115704;-65
2022/11/25 03:42:46;;;;;;;5.80;3.90;;;2.30;99.90;2.20;100501.00;;;;4998548;27;88026;-65
2022/11/25 03:45:14;;;;;;;7.50;4.07;;;2.50;99.90;2.20;100496.00;;;;4994071;27;105342;-65
2022/11/25 03:47:41;;;;;;;6.30;4.10;;;2.50;99.90;2.20;100494.00;;;;4992107;28;109720;-65
2022/11/25 03:50:08;;;;;;;6.77;3.67;;;2.50;99.90;2.20;100489.00;;;;4996235;27;102608;-65
2022/11/25 03:52:34;;;;;;;7.17;3.43;;;2.40;99.90;2.30;100498.00;;;;4997369;27;88910;-65
2022/11/25 03:55:00;;;;;;;4.23;3.40;;;2.50;99.90;2.30;100503.00;;;;4988300;27;88013;-65
2022/11/25 03:57:26;;;;;;;5.10;3.33;;;2.40;99.90;2.40;100497.00;;;;4988577;28;119378;-65
2022/11/25 03:59:51;;;;;;;4.20;3.53;;;2.60;99.90;2.40;100507.00;;;;4987492;28;118053;-65
2022/11/25 04:02:17;;;;;;;4.97;4.17;;;2.60;99.90;2.40;100507.00;;;;4987604;27;110022;-65
2022/11/25 04:04:43;;;;;;;6.73;4.20;;;2.60;99.90;2.50;100507.00;;;;4982431;27;87685;-65
2022/11/25 04:07:09;;;;;;;4.20;3.43;;;2.80;99.90;2.50;100506.00;;;;4991970;27;117215;-65
2022/11/25 04:09:34;;;;;;;5.77;3.37;;;2.80;99.90;2.50;100516.00;;;;4987679;27;116773;-65
2022/11/25 04:14:44;;;;;;;6.67;3.67;;;2.80;99.90;2.50;100516.00;;;;4986953;27;87053;-64
2022/11/25 04:17:10;;;;;;;4.63;2.83;;;2.80;99.90;2.50;100510.00;;;;4991268;27;117662;-64
2022/11/25 04:19:35;;;;;;;3.73;3.33;;;2.70;99.90;2.50;100529.00;;;;4987948;27;116882;-64
2022/11/25 04:22:01;;;;;;;7.37;3.57;;;1.20;99.90;2.60;100520.00;;;;4988523;27;108483;-63
2022/11/25 04:24:27;;;;;;;6.13;3.70;;;2.80;99.90;2.60;100519.00;;;;4992297;27;87765;-64
2022/11/25 04:26:53;;;;;;;6.50;3.20;;;2.80;99.90;2.60;100521.00;;;;4989395;27;117696;-63
2022/11/25 04:29:19;;;;;;;5.90;3.27;;;2.90;99.90;2.60;100520.00;;;;4989953;28;116920;-63
2022/11/25 04:31:45;;;;;;;2.70;2.50;;;2.90;99.90;2.60;100519.00;;;;4989589;27;88048;-63
2022/11/25 04:34:10;;;;;;;3.87;3.17;;;2.80;99.90;2.60;100521.00;;;;4983743;27;109449;-65
2022/11/25 04:36:36;;;;;;;6.03;2.80;;;2.90;99.90;2.60;100518.00;;;;4991851;27;118799;-65
2022/11/25 04:39:03;;;;;;;4.43;3.43;;;3.00;99.90;2.60;100518.00;;;;4980666;28;115612;-65
2022/11/25 04:41:29;;;;;;;8.20;3.33;;;2.90;99.90;2.70;100527.00;;;;4986077;27;89169;-65
2022/11/25 04:43:54;;;;;;;3.10;2.80;;;2.90;99.90;2.70;100514.00;;;;4993227;27;107742;-64
2022/11/25 04:46:29;;;;;;;4.07;3.20;;;3.00;99.90;2.70;100526.00;;;;4986784;27;118298;-65
2022/11/25 04:48:55;;;;;;;7.37;3.53;;;3.00;99.90;2.70;100525.00;;;;4995254;27;109750;-65
2022/11/25 04:51:20;;;;;;;3.67;3.37;;;3.00;99.90;2.70;100528.00;;;;4997375;27;107953;-64
2022/11/25 04:53:46;;;;;;;2.70;2.47;;;2.90;99.90;2.70;100529.00;;;;5000534;27;109474;-65
2022/11/25 04:56:19;;;;;;;4.40;2.37;;;3.00;99.90;2.70;100526.00;;;;4995181;27;88818;-65
2022/11/25 05:01:29;;;;;;;4.57;2.63;;;3.00;99.90;2.70;100520.00;;;;4995433;27;87933;-65
2022/11/25 05:03:55;;;;;;;4.13;2.33;;;2.90;99.90;2.70;100522.00;;;;4990107;27;107857;-65
2022/11/25 05:06:21;;;;;;;3.30;2.73;;;3.00;99.90;2.70;100510.00;;;;4990636;27;117283;-65
2022/11/25 05:08:50;;;;;;;4.50;2.50;;;2.90;99.90;2.70;100518.00;;;;4992250;27;117827;-65
2022/11/25 05:11:16;;;;;;;3.60;2.37;;;3.10;99.90;2.80;100524.00;;;;4992669;27;88867;-65
2022/11/25 05:13:42;;;;;;;5.73;4.30;;;3.00;99.90;2.80;100529.00;;;;4994936;28;87813;-65
2022/11/25 05:16:08;;;;;;;4.80;3.50;;;3.00;99.90;2.80;100530.00;;;;4996041;27;117527;-65
2022/11/25 05:18:33;;;;;;;4.13;2.83;;;3.10;99.90;2.80;100527.00;;;;4995167;27;108914;-65
2022/11/25 05:21:04;;;;;;;6.57;3.80;;;3.10;99.90;2.90;100526.00;;;;4994520;27;108226;-64
2022/11/25 05:23:30;;;;;;;3.77;2.17;;;3.10;99.90;2.90;100533.00;;;;4995661;27;88062;-65
2022/11/25 05:26:01;;;;;;;5.80;4.13;;;3.10;99.90;3.00;100532.00;;;;4996378;27;118050;-65
2022/11/25 05:28:27;;;;;;;3.87;3.47;;;3.20;99.90;3.00;100531.00;;;;4996814;27;110887;-64
2022/11/25 05:30:53;;;;;;;5.30;3.50;;;3.20;99.90;3.00;100538.00;;;;4995547;27;87825;-65
2022/11/25 05:33:19;;;;;;;6.00;3.17;;;3.20;99.90;3.00;100540.00;;;;4992116;27;88000;-65
2022/11/25 05:36:03;;;;;;;4.63;3.80;;;3.30;99.90;3.10;100536.00;;;;4997108;27;117624;-65
2022/11/25 05:38:28;;;;;;;5.13;3.53;;;3.30;99.90;3.10;100536.00;;;;4979537;27;88724;-65
2022/11/25 05:41:02;;;;;;;10.03;3.03;;;3.20;99.90;3.10;100528.00;;;;4993481;27;101201;-64
2022/11/25 05:43:28;;;;;;;3.03;2.27;;;3.30;99.90;3.10;100534.00;;;;4989131;27;88029;-64
2022/11/25 05:45:54;;;;;;;5.30;3.30;;;3.30;99.90;3.10;100531.00;;;;4993551;27;95127;-64
2022/11/25 05:48:19;;;;;;;6.23;2.50;;;3.30;99.90;3.10;100538.00;;;;4992327;27;117122;-64
2022/11/25 05:50:45;;;;;;;6.23;4.20;;;3.40;99.90;3.10;100531.00;;;;4994480;27;109361;-64
2022/11/25 05:53:11;;;;;;;5.93;4.40;;;3.30;99.90;3.00;100520.00;;;;4992721;27;108896;-64
2022/11/25 05:55:36;;;;;;;6.13;3.97;;;4.00;99.90;3.00;100534.00;;;;4992938;27;89163;-64
2022/11/25 05:58:04;;;;;;;5.97;3.57;;;3.30;99.90;3.00;100522.00;;;;4987111;27;117684;-64
2022/11/25 06:00:31;;;;;;;6.63;4.90;;;3.30;99.90;2.90;100535.00;;;;4991106;27;88792;-64
2022/11/25 06:02:56;;;;;;;7.97;3.30;;;3.10;99.90;2.80;100530.00;;;;4991985;27;88090;-64
2022/11/25 06:05:23;;;;;;;7.47;3.67;;;3.10;99.90;2.70;100531.00;;;;4992570;27;116594;-64
2022/11/25 06:07:49;;;;;;;5.40;3.57;;;3.00;99.90;2.60;100521.00;;;;4993115;27;88757;-65
2022/11/25 06:10:17;;;;;;;3.43;2.60;;;3.90;99.90;2.50;100528.00;;;;4991012;27;88720;-65
2022/11/25 06:12:43;;;;;;;5.57;3.80;;;2.80;99.90;2.40;100525.00;;;;4983116;27;87924;-64
2022/11/25 06:15:09;;;;;;;5.60;3.20;;;2.70;99.90;2.30;100521.00;;;;4991524;27;88861;-64
2022/11/25 06:17:35;;;;;;;5.13;3.40;;;2.70;99.90;2.20;100531.00;;;;4992807;27;88785;-64
2022/11/25 06:20:01;;;;;;;7.37;4.33;;;2.40;99.90;2.00;100529.00;;;;4991471;27;110934;-65
2022/11/25 06:22:26;;;;;;;4.73;4.17;;;2.40;99.90;2.00;100545.00;;;;4990446;27;108396;-64
2022/11/25 06:24:52;;;;;;;6.00;3.90;;;2.20;99.90;1.90;100532.00;;;;4989366;27;117907;-64
2022/11/25 06:27:18;;;;;;;5.37;4.87;;;2.10;99.90;1.80;100538.00;;;;4991298;27;89610;-64
2022/11/25 06:29:43;;;;;;;5.27;3.23;;;2.10;99.90;1.70;100532.00;;;;4990836;27;109138;-64
2022/11/25 06:32:09;;;;;;;7.47;3.77;;;2.00;99.90;1.60;100550.00;;;;4988346;27;108261;-64
2022/11/25 06:34:36;;;;;;;7.43;3.40;;;2.00;99.90;1.60;100551.00;;;;4995974;27;117544;-66
2022/11/25 06:37:01;;;;;;;6.60;3.27;;;1.90;99.90;1.50;100552.00;;;;4995880;27;88976;-66
2022/11/25 06:39:27;;;;;;;9.63;3.50;;;1.90;99.90;1.40;100555.00;;;;4996206;27;110251;-64
2022/11/25 06:41:52;;;;;;;4.60;3.50;;;1.80;99.90;1.40;100551.00;;;;4989605;28;108890;-64
2022/11/25 06:44:18;;;;;;;4.70;3.47;;;1.80;99.90;1.30;100567.00;;;;4990608;28;117929;-65
2022/11/25 06:46:44;;;;;;;8.10;4.47;;;1.60;99.90;1.20;100552.00;;;;4990706;28;117693;-64
2022/11/25 06:49:09;;;;;;;5.23;4.20;;;1.60;99.90;1.20;100558.00;;;;4994629;27;88597;-65
2022/11/25 06:51:35;;;;;;;12.23;6.80;;;1.60;99.90;1.10;100563.00;;;;4992165;28;109217;-64
2022/11/25 06:54:01;;;;;;;8.87;6.77;;;1.40;99.90;1.10;100556.00;;;;4989972;28;117901;-64
2022/11/25 06:56:27;;;;;;;13.67;7.83;;;1.50;99.90;1.10;100561.00;;;;4990395;27;117187;-64
2022/11/25 06:58:54;;;;;;;9.90;7.50;;;1.40;99.90;1.00;100572.00;;;;4989556;27;105020;-65
2022/11/25 07:01:27;;;;;;;9.27;6.10;;;1.30;99.90;1.00;100569.00;;;;4971337;27;97149;-64
2022/11/25 07:03:57;;;;;;;6.17;4.43;;;1.40;99.90;1.00;100577.00;;;;4991063;27;88121;-64
2022/11/25 07:06:23;;;;;;;5.63;5.13;;;1.30;99.90;1.00;100581.00;;;;4989118;27;106855;-64
2022/11/25 07:08:49;;;;;;;15.27;7.50;;;1.30;99.90;1.00;100574.00;;;;4987376;27;101501;-64
2022/11/25 07:11:28;;;;;;;17.10;9.20;;;1.30;99.90;1.10;100575.00;;;;4990957;27;95787;-65
2022/11/25 07:13:58;;;;;;;12.30;9.43;;;1.40;99.90;1.10;100578.00;;;;4984582;27;97065;-64
2022/11/25 07:16:25;;;;;;;13.27;7.50;;;1.40;99.90;1.20;100583.00;;;;4991631;27;89129;-64
2022/11/25 07:18:51;;;;;;;11.80;8.10;;;1.50;99.90;1.30;100591.00;;;;4991888;27;96879;-64
2022/11/25 07:21:20;;;;;;;12.37;8.17;;;1.60;99.90;1.50;100595.00;;;;4990838;27;108864;-64
2022/11/25 07:23:47;;;;;;;7.57;5.63;;;1.70;99.90;1.70;100589.00;;;;4989719;27;100035;-64
2022/11/25 07:26:20;;;;;;;16.63;7.13;;;1.90;99.90;1.90;100588.00;;;;4988918;28;88121;-64
2022/11/25 07:28:47;;;;;;;10.47;6.40;;;2.10;99.90;2.10;100597.00;;;;4963335;28;87920;-64
2022/11/25 07:31:20;;;;;;;8.03;5.90;;;2.30;99.90;2.30;100593.00;;;;4985508;27;100004;-64
2022/11/25 07:33:46;;;;;;;6.77;5.93;;;2.50;99.90;2.50;100604.00;;;;4983665;28;88418;-64
2022/11/25 07:36:14;;;;;;;8.67;5.33;;;2.70;99.90;2.80;100606.00;;;;4988399;28;111721;-64
2022/11/25 07:38:40;;;;;;;5.67;4.03;;;2.90;99.90;3.00;100602.00;;;;4986089;27;100016;-64
2022/11/25 07:41:13;;;;;;;3.03;2.73;;;3.20;99.90;3.30;100603.00;;;;4990455;28;87774;-65
2022/11/25 07:43:39;;;;;;;4.80;3.73;;;3.50;99.90;3.50;100609.00;;;;4989888;27;87824;-64
2022/11/25 07:46:15;;;;;;;5.97;3.87;;;3.60;99.90;3.80;100609.00;;;;4994255;28;113026;-64
2022/11/25 07:48:41;;;;;;;3.67;3.37;;;4.00;99.90;4.10;100614.00;;;;4993488;28;87899;-64
2022/11/25 07:51:35;;;;;;;5.40;4.07;;;4.20;99.90;4.40;100609.00;;;;4992269;28;87626;-64
2022/11/25 07:54:04;;;;;;;5.33;3.87;;;4.60;99.90;4.70;100604.00;;;;4986106;28;87854;-64
2022/11/25 07:56:34;;;;;;;4.47;4.00;;;4.80;99.90;5.10;100604.00;;;;4976583;28;89836;-64
2022/11/25 07:59:00;;;;;;;4.33;3.93;;;5.10;99.90;5.40;100609.00;;;;4990183;28;87874;-64
2022/11/25 08:01:26;;;;;;;7.73;4.67;;;5.50;99.90;5.70;100615.00;;;;4985949;28;109788;-65
2022/11/25 08:03:52;;;;;;;6.03;4.27;;;5.70;99.90;6.00;100618.00;;;;4991816;28;99555;-65
2022/11/25 08:06:25;;;;;;;6.07;4.57;;;6.70;99.90;6.40;100625.00;;;;4989004;27;89186;-65
2022/11/25 08:08:54;;;;;;;4.60;3.67;;;7.00;99.90;6.70;100624.00;;;;4988904;28;87731;-65
2022/11/25 08:11:31;;;;;;;8.93;4.50;;;6.70;99.90;7.00;100617.00;;;;4988370;28;87776;-66
2022/11/25 08:13:57;;;;;;;5.50;4.07;;;7.00;99.90;7.20;100622.00;;;;4975469;28;88818;-65
2022/11/25 08:16:26;;;;;;;5.30;3.23;;;8.00;99.90;7.40;100627.00;;;;4988915;28;87965;-65
2022/11/25 08:18:54;;;;;;;5.37;4.43;;;8.20;99.90;7.60;100624.00;;;;4988206;27;88117;-66
2022/11/25 08:21:20;;;;;;;4.73;4.17;;;7.70;99.90;7.80;100625.00;;;;4993676;28;87042;-66
2022/11/25 08:23:47;;;;;;;6.77;3.17;;;7.90;99.90;8.00;100626.00;;;;4995424;28;88329;-66
2022/11/25 08:26:32;;;;;;;6.20;4.40;;;8.10;99.90;8.20;100638.00;;;;4993949;28;88079;-66
2022/11/25 08:28:59;;;;;;;4.83;4.30;;;8.30;99.90;8.50;100635.00;;;;4992631;28;88918;-65
2022/11/25 08:31:29;;;;;;;9.17;3.97;;;8.50;99.90;8.70;100646.00;;;;4992882;28;87739;-65
2022/11/25 08:33:55;;;;;;;5.67;3.90;;;8.80;99.90;9.00;100641.00;;;;4990349;28;88472;-66
2022/11/25 08:36:22;;;;;;;5.10;2.90;;;9.20;99.90;9.30;100653.00;;;;4991921;28;108272;-65
2022/11/25 08:38:51;;;;;;;4.63;3.43;;;9.30;99.90;9.60;100648.00;;;;4993614;27;87947;-65
2022/11/25 08:41:24;;;;;;;5.87;3.27;;;9.50;99.90;9.90;100647.00;;;;4988974;28;96983;-66
2022/11/25 08:43:50;;;;;;;4.20;2.70;;;9.80;99.90;10.10;100640.00;;;;4994952;28;110025;-66
2022/11/25 08:46:21;;;;;;;8.10;4.37;;;10.00;99.90;10.40;100642.00;;;;4996578;28;87868;-66
2022/11/25 08:48:46;;;;;;;5.23;3.33;;;10.40;99.90;10.60;100640.00;;;;4982197;28;91493;-66
2022/11/25 08:51:19;;;;;;;3.87;2.93;;;10.60;99.90;10.90;100644.00;;;;4988937;28;109215;-66
2022/11/25 08:53:46;;;;;;;5.23;3.13;;;10.80;99.90;11.00;100642.00;;;;4980083;28;89139;-66
2022/11/25 08:56:12;;;;;;;3.20;2.90;;;10.90;99.90;11.10;100649.00;;;;4993518;27;89060;-66
2022/11/25 08:58:38;;;;;;;8.40;3.40;;;11.10;99.90;11.30;100642.00;;;;4995390;28;88002;-66
2022/11/25 09:01:05;;;;;;;2.73;2.40;;;11.20;99.90;11.30;100646.00;;;;4991546;28;109779;-66
2022/11/25 09:03:37;;;;;;;8.80;3.03;;;11.30;99.90;11.30;100644.00;;;;4992504;28;104739;-66
2022/11/25 09:06:05;;;;;;;4.13;2.10;;;11.30;99.90;11.20;100657.00;;;;4992746;28;87851;-66
2022/11/25 09:08:31;;;;;;;2.27;2.03;;;11.30;99.90;11.20;100650.00;;;;4991541;28;101868;-66
2022/11/25 09:10:57;;;;;;;4.23;2.07;;;11.30;99.90;11.30;100651.00;;;;4992687;28;87283;-67
2022/11/25 09:13:24;;;;;;;1.77;1.67;;;11.30;99.90;11.40;100649.00;;;;4991351;28;88620;-66
2022/11/25 09:15:49;;;;;;;3.27;2.07;;;11.40;99.90;11.60;100648.00;;;;4983799;27;117219;-66
2022/11/25 09:18:17;;;;;;;5.37;2.43;;;11.60;99.90;11.90;100647.00;;;;4988123;28;111517;-66
2022/11/25 09:20:43;;;;;;;3.07;2.43;;;11.70;99.90;12.10;100641.00;;;;4994922;28;88025;-66
2022/11/25 09:23:09;;;;;;;3.17;1.63;;;12.00;99.90;12.40;100651.00;;;;4995484;28;117246;-67
2022/11/25 09:25:35;;;;;;;4.10;2.20;;;12.30;99.90;12.60;100653.00;;;;4990046;28;87894;-66
2022/11/25 09:28:01;;;;;;;4.87;2.00;;;12.50;99.90;12.70;100647.00;;;;4990348;27;109235;-66
2022/11/25 09:30:27;;;;;;;2.97;2.10;;;12.60;99.90;12.70;100649.00;;;;4981711;27;88322;-67
2022/11/25 09:32:55;;;;;;;7.50;2.57;;;12.70;99.90;12.90;100648.00;;;;4992764;28;118946;-67
2022/11/25 09:35:23;;;;;;;2.63;2.20;;;12.90;99.90;13.00;100656.00;;;;4978896;28;88064;-67
2022/11/25 09:37:49;;;;;;;4.00;2.17;;;12.90;99.90;13.10;100653.00;;;;4994056;27;87844;-66
2022/11/25 09:40:26;;;;;;;2.87;2.03;;;12.90;99.90;13.10;100654.00;;;;4987330;28;98231;-67
2022/11/25 09:47:03;;;;;;;4.93;2.50;;;13.20;99.90;13.50;100658.00;;;;4989140;28;87912;-66
2022/11/25 09:50:02;;;;;;;3.13;2.27;;;13.40;99.90;13.60;100657.00;;;;4890766;28;88074;-66
2022/11/25 09:53:04;;;;;;;4.33;2.33;;;13.50;99.90;13.70;100657.00;;;;4893598;28;90292;-66
2022/11/25 09:55:38;;;;;;;4.57;2.40;;;13.60;99.90;13.90;100654.00;;;;4974318;28;87797;-66
2022/11/25 09:58:34;;;;;;;4.57;2.23;;;13.80;99.90;14.20;100664.00;;;;4975308;28;87862;-66
2022/11/25 10:01:11;;;;;;;4.70;2.37;;;14.00;99.90;14.40;100661.00;;;;4990168;28;87961;-66
2022/11/25 10:03:48;;;;;;;2.73;2.10;;;14.20;99.90;14.60;100661.00;;;;4978212;28;87398;-67
2022/11/25 10:06:28;;;;;;;3.10;1.73;;;14.40;99.90;14.70;100661.00;;;;4975371;28;109104;-66
2022/11/25 10:09:01;;;;;;;5.03;1.87;;;14.50;99.90;14.70;100666.00;;;;4977927;28;88081;-66
2022/11/25 10:11:42;;;;;;;3.60;1.67;;;14.60;99.90;14.70;100657.00;;;;4989142;28;103292;-66
2022/11/25 10:14:22;;;;;;;2.25;1.25;;;14.60;99.90;14.60;100660.00;;;;4991804;28;87699;-67
2022/11/25 10:17:00;;;;;;;2.57;1.07;;;14.60;99.90;14.50;100650.00;;;;4984217;28;87917;-66
2022/11/25 10:19:42;;;;;;;1.57;1.00;;;14.50;99.90;14.50;100655.00;;;;4990316;27;89165;-67
2022/11/25 10:22:30;;;;;;;1.73;1.45;;;14.40;99.10;14.50;100656.00;;;;4979003;28;88072;-67
2022/11/25 10:25:00;;;;;;;3.97;1.37;;;14.40;99.00;14.60;100655.00;;;;4991167;27;99717;-67
2022/11/25 10:27:59;;;;;;;1.90;1.30;;;14.50;99.70;14.70;100655.00;;;;4987555;28;113307;-67
2022/11/25 10:30:33;;;;;;;5.03;1.23;;;14.60;99.00;14.80;100663.00;;;;4984348;27;89608;-65
2022/11/25 10:33:21;;;;;;;2.90;1.88;;;14.70;98.70;15.00;100666.00;;;;4989702;27;87725;-65
2022/11/25 10:35:57;;;;;;;1.93;1.10;;;14.80;98.70;15.20;100663.00;;;;4979197;28;88007;-66
2022/11/25 10:38:32;;;;;;;5.20;1.70;;;15.00;98.10;15.30;100663.00;;;;4975169;28;89957;-66
2022/11/25 10:40:58;;;;;;;2.97;1.40;;;15.20;97.70;15.40;100657.00;;;;4978778;28;110827;-67
2022/11/25 10:43:24;;;;;;;3.13;1.40;;;15.20;96.40;15.30;100662.00;;;;4993674;27;111195;-66
2022/11/25 10:46:05;;;;;;;1.08;0.93;;;15.20;95.60;15.30;100668.00;;;;4994787;28;87638;-65
2022/11/25 10:48:49;;;;;;;2.13;1.33;;;15.20;95.50;15.30;100668.00;;;;4978313;28;109297;-66
2022/11/25 10:51:46;;;;;;;1.53;1.07;;;15.20;94.80;15.40;100651.00;;;;4977402;28;106209;-67
2022/11/25 10:54:20;;;;;;;5.78;1.50;;;15.20;95.10;15.60;100658.00;;;;4981731;28;87916;-67
2022/11/25 10:57:18;;;;;;;3.33;1.48;;;15.40;94.20;15.70;100652.00;;;;4981585;28;87206;-66
2022/11/25 10:59:56;;;;;;;4.40;1.15;;;15.40;93.50;15.70;100651.00;;;;4966957;28;88098;-66
2022/11/25 11:02:34;;;;;;;6.00;1.88;;;15.60;93.70;16.00;100655.00;;;;4988025;28;87826;-67
2022/11/25 11:05:08;;;;;;;3.88;1.20;;;15.70;94.20;16.20;100654.00;;;;4990158;28;88767;-65
2022/11/25 11:07:38;;;;;;;1.60;1.35;;;16.00;92.50;16.30;100655.00;;;;4988915;28;87687;-66
2022/11/25 11:10:13;;;;;;;4.10;1.02;;;16.10;92.60;16.40;100665.00;;;;4973654;28;89315;-66
2022/11/25 11:12:55;;;;;;;2.92;1.13;;;16.20;92.30;16.50;100660.00;;;;4988346;27;103841;-66
2022/11/25 11:15:40;;;;;;;4.18;1.75;;;16.30;90.80;16.30;100658.00;;;;4976866;28;88002;-67
2022/11/25 11:18:28;;;;;;;1.73;1.05;;;16.20;88.40;16.20;100662.00;;;;4991254;27;93160;-67
2022/11/25 11:20:58;;;;;;;1.23;0.82;;;16.10;89.00;16.20;100649.00;;;;4983060;28;87922;-66